This is the latest recevied weather packets stored in our database for station/object EA8AYY-10. If no packets are shown the sender has not sent any weather packets the latest 10 day(s).
| Time | Temp. | Humidity | Pressure | Rain* | Wind** | Luminosity | Snow |
|---|---|---|---|---|---|---|---|
| 1787725030 | 21.11° C | 61% | 1022.3 hPa | - | - | - | - |
| 1787724130 | 20° C | 63% | 1022.3 hPa | - | - | - | - |
| 1787723230 | 20° C | 63% | 1022.2 hPa | - | - | - | - |
| 1787722330 | 24.44° C | 55% | 1022 hPa | - | - | - | - |
| 1787721428 | 20° C | 63% | 1022 hPa | - | - | - | - |
| 1787720528 | 20.56° C | 63% | 1021.9 hPa | - | - | - | - |
| 1787719628 | 21.11° C | 60% | 1021.9 hPa | - | - | - | - |
| 1787718727 | 20° C | 64% | 1021.9 hPa | - | - | - | - |
| 1787717827 | 20.56° C | 64% | 1022 hPa | - | - | - | - |
| 1787716927 | 20° C | 65% | 1022 hPa | - | - | - | - |
| 1787716022 | 20.56° C | 64% | 1022 hPa | - | - | - | - |
| 1787715122 | 22.22° C | 61% | 1022 hPa | - | - | - | - |
| 1787714222 | 20.56° C | 64% | 1022.1 hPa | - | - | - | - |
| 1787712422 | 21.67° C | 61% | 1022.1 hPa | - | - | - | - |
| 1787711522 | 21.11° C | 64% | 1022.2 hPa | - | - | - | - |
| 1787710621 | 21.67° C | 63% | 1022.2 hPa | - | - | - | - |
| 1787709721 | 21.67° C | 62% | 1022.3 hPa | - | - | - | - |
| 1787708821 | 21.67° C | 63% | 1022.5 hPa | - | - | - | - |
| 1787707921 | 23.33° C | 60% | 1022.6 hPa | - | - | - | - |
| 1787707020 | 22.22° C | 63% | 1023 hPa | - | - | - | - |
| 1787706120 | 23.33° C | 60% | 1022.9 hPa | - | - | - | - |
| 1787705220 | 22.78° C | 62% | 1023.1 hPa | - | - | - | - |
| 1787704320 | 21.67° C | 64% | 1023.2 hPa | - | - | - | - |
| 1787703420 | 22.22° C | 63% | 1023.3 hPa | - | - | - | - |
| 1787702519 | 21.67° C | 64% | 1023.4 hPa | - | - | - | - |
* Rain since midnight (hover to see other rain measurements)
** Current wind speed in m/s (hover to see current wind gust speed)